createdAt,value
2017-10-04T00:02:00.672Z,102059.72
2017-10-04T00:04:03.107Z,102060.25
2017-10-04T00:06:05.542Z,102056.27
2017-10-04T00:08:08.157Z,102061.60
2017-10-04T00:10:10.624Z,102051.19
2017-10-04T00:12:13.103Z,102050.44
2017-10-04T00:14:15.585Z,102045.46
2017-10-04T00:16:18.030Z,102041.91
2017-10-04T00:18:20.516Z,102035.58
2017-10-04T00:20:23.195Z,102043.19
2017-10-04T00:22:25.631Z,102049.09
2017-10-04T00:24:28.136Z,102050.02
2017-10-04T00:26:30.608Z,102043.76
2017-10-04T00:28:33.076Z,102054.06
2017-10-04T00:30:35.517Z,102048.73
2017-10-04T00:32:37.997Z,102033.87
2017-10-04T00:34:40.433Z,102037.50
2017-10-04T00:36:42.863Z,102034.38
2017-10-04T00:38:45.423Z,102036.58
2017-10-04T00:40:47.895Z,102034.38
2017-10-04T00:42:50.334Z,102045.19
2017-10-04T00:44:52.796Z,102041.23
2017-10-04T00:46:55.223Z,102035.30
2017-10-04T00:48:57.681Z,102036.23
2017-10-04T00:51:00.249Z,102029.58
2017-10-04T00:53:02.681Z,102038.00
2017-10-04T00:55:05.120Z,102031.67
2017-10-04T00:57:07.593Z,102028.97
2017-10-04T00:59:10.027Z,102035.30
2017-10-04T01:01:12.601Z,102032.09
2017-10-04T01:03:15.073Z,102026.27
2017-10-04T01:05:17.544Z,102028.55
2017-10-04T01:07:20.020Z,102028.55
2017-10-04T01:09:22.560Z,102027.20
2017-10-04T01:11:25.001Z,102024.60
2017-10-04T01:13:27.445Z,102029.58
2017-10-04T01:15:29.905Z,102024.60
2017-10-04T01:17:32.348Z,102025.03
2017-10-04T01:19:34.783Z,102023.25
2017-10-04T01:21:37.250Z,102019.09
2017-10-04T01:23:39.690Z,102020.13
2017-10-04T01:25:42.123Z,102013.87
2017-10-04T01:27:44.608Z,102014.72
2017-10-04T01:29:47.048Z,102015.64
2017-10-04T01:31:49.475Z,102008.46
2017-10-04T01:33:51.932Z,102012.09
2017-10-04T01:35:54.364Z,102017.07
2017-10-04T01:37:56.857Z,102008.54
2017-10-04T01:39:59.326Z,102003.13
2017-10-04T01:42:01.799Z,102005.84
2017-10-04T01:44:04.268Z,102002.28
2017-10-04T01:46:06.743Z,101995.95
2017-10-04T01:48:09.180Z,101995.10
2017-10-04T01:50:11.635Z,101995.95
2017-10-04T01:52:14.088Z,101999.16
2017-10-04T01:54:16.620Z,102000.00
2017-10-04T01:56:19.052Z,102003.56
2017-10-04T01:58:21.561Z,102005.84
2017-10-04T02:00:24.021Z,102013.94
2017-10-04T02:02:26.500Z,102009.89
2017-10-04T02:04:29.074Z,102013.94
2017-10-04T02:06:31.536Z,102015.72
2017-10-04T02:08:33.968Z,102013.94
2017-10-04T02:10:36.574Z,102007.27
2017-10-04T02:12:39.009Z,102002.28
2017-10-04T02:14:41.455Z,102004.56
2017-10-04T02:16:43.927Z,102001.44
2017-10-04T02:18:46.387Z,102002.28
2017-10-04T02:20:48.829Z,101995.21
2017-10-04T02:22:51.279Z,101987.50
2017-10-04T02:24:53.717Z,101991.16
2017-10-04T02:26:56.159Z,101982.09
2017-10-04T02:28:58.626Z,101982.52
2017-10-04T02:31:01.088Z,101982.28
2017-10-04T02:33:03.568Z,101985.41
2017-10-04T02:35:06.122Z,101985.91
2017-10-04T02:37:08.563Z,101990.88
2017-10-04T02:39:11.021Z,101994.01
2017-10-04T02:41:13.532Z,101991.31
2017-10-04T02:43:15.993Z,101989.95
2017-10-04T02:45:18.433Z,101992.23
2017-10-04T02:47:20.905Z,101986.41
2017-10-04T02:49:23.479Z,101985.05
2017-10-04T02:51:25.928Z,101990.88
2017-10-04T02:53:28.478Z,101980.58
2017-10-04T02:55:30.916Z,101981.00
2017-10-04T02:57:33.397Z,101976.95
2017-10-04T02:59:35.861Z,101971.55
2017-10-04T03:01:38.309Z,101968.34
2017-10-04T03:03:40.806Z,101970.12
2017-10-04T03:05:43.274Z,101962.09
2017-10-04T03:07:45.751Z,101959.81
2017-10-04T03:09:48.224Z,101958.03
2017-10-04T03:11:50.851Z,101949.08
2017-10-04T03:13:53.290Z,101956.26
2017-10-04T03:15:55.717Z,101953.56
2017-10-04T03:17:58.187Z,101955.33
2017-10-04T03:20:00.632Z,101953.56
2017-10-04T03:22:03.068Z,101953.98
2017-10-04T03:24:05.525Z,101951.28
2017-10-04T03:26:07.956Z,101953.13
2017-10-04T03:28:10.395Z,101950.43
2017-10-04T03:30:13.230Z,101952.70
2017-10-04T03:32:15.693Z,101955.02
2017-10-04T03:34:18.174Z,101959.46
2017-10-04T03:36:20.738Z,101957.19
2017-10-04T03:38:23.212Z,101951.89
2017-10-04T03:40:25.681Z,101962.59
2017-10-04T03:42:29.097Z,101956.87
2017-10-04T03:44:31.537Z,101957.72
2017-10-04T03:46:34.012Z,101960.42
2017-10-04T03:48:36.640Z,101956.87
2017-10-04T03:50:39.163Z,101961.42
2017-10-04T03:52:41.591Z,101956.94
2017-10-04T03:54:44.161Z,101954.67
2017-10-04T03:56:46.668Z,101956.44
2017-10-04T03:58:49.103Z,101955.09
2017-10-04T04:00:51.711Z,101959.99
2017-10-04T04:02:54.155Z,101965.90
2017-10-04T04:04:56.603Z,101956.44
2017-10-04T04:06:59.125Z,101947.41
2017-10-04T04:09:01.567Z,101938.45
2017-10-04T04:11:03.999Z,101938.87
2017-10-04T04:13:06.773Z,101937.11
2017-10-04T04:15:09.211Z,101922.75
2017-10-04T04:17:11.652Z,101919.12
2017-10-04T04:19:14.124Z,101929.00
2017-10-04T04:21:16.557Z,101924.95
2017-10-04T04:23:18.993Z,101921.81
2017-10-04T04:25:21.486Z,101922.75
2017-10-04T04:27:23.925Z,101927.30
2017-10-04T04:29:26.365Z,101919.19
2017-10-04T04:31:28.826Z,101917.42
2017-10-04T04:33:31.268Z,101918.77
2017-10-04T04:35:33.704Z,101914.29
2017-10-04T04:37:36.171Z,101916.06
2017-10-04T04:39:38.609Z,101911.59
2017-10-04T04:41:41.036Z,101900.36
2017-10-04T04:43:43.504Z,101902.24
2017-10-04T04:45:45.951Z,101898.58
2017-10-04T04:47:48.393Z,101903.98
2017-10-04T04:49:50.852Z,101902.74
2017-10-04T04:51:53.312Z,101888.31
2017-10-04T04:53:55.748Z,101886.03
2017-10-04T04:55:58.202Z,101893.18
2017-10-04T04:58:00.642Z,101891.01
2017-10-04T05:00:03.218Z,101895.06
2017-10-04T05:02:05.676Z,101886.95
2017-10-04T05:04:08.107Z,101895.06
2017-10-04T05:06:10.561Z,101895.98
2017-10-04T05:08:13.017Z,101904.52
2017-10-04T05:10:15.453Z,101903.98
2017-10-04T05:12:17.893Z,101908.57
2017-10-04T05:14:20.494Z,101909.92
2017-10-04T05:16:23.023Z,101915.75
2017-10-04T05:18:25.470Z,101915.75
2017-10-04T05:20:27.945Z,101906.37
2017-10-04T05:22:30.419Z,101918.10
2017-10-04T05:24:32.950Z,101916.67
2017-10-04T05:26:35.410Z,101909.50
2017-10-04T05:28:37.849Z,101908.57
2017-10-04T05:30:40.360Z,101906.37
2017-10-04T05:32:42.819Z,101910.50
2017-10-04T05:34:45.355Z,101913.20
2017-10-04T05:36:47.795Z,101920.80
2017-10-04T05:38:50.296Z,101915.83
2017-10-04T05:40:52.775Z,101914.13
2017-10-04T05:42:55.211Z,101915.48
2017-10-04T05:44:57.682Z,101915.05
2017-10-04T05:47:00.114Z,101915.91
2017-10-04T05:49:02.651Z,101925.86
2017-10-04T05:51:05.220Z,101935.31
2017-10-04T05:53:07.653Z,101929.91
2017-10-04T05:55:10.110Z,101928.64
2017-10-04T05:57:12.753Z,101927.64
2017-10-04T05:59:15.243Z,101930.84
2017-10-04T06:01:17.768Z,101940.72
2017-10-04T06:03:20.394Z,101923.23
2017-10-04T06:05:22.961Z,101924.08
2017-10-04T06:07:25.505Z,101925.44
2017-10-04T06:09:27.988Z,101913.70
2017-10-04T06:11:30.515Z,101914.13
2017-10-04T06:13:32.951Z,101906.45
2017-10-04T06:15:35.476Z,101898.92
2017-10-04T06:17:38.074Z,101893.94
2017-10-04T06:19:40.518Z,101903.82
2017-10-04T06:21:43.021Z,101897.49
2017-10-04T06:23:45.548Z,101907.30
2017-10-04T06:25:47.976Z,101907.11
2017-10-04T06:27:50.520Z,101901.13
2017-10-04T06:29:52.968Z,101896.92
2017-10-04T06:31:56.248Z,101890.91
2017-10-04T06:33:58.718Z,101889.56
2017-10-04T06:36:01.168Z,101892.93
2017-10-04T06:38:04.541Z,101886.52
2017-10-04T06:40:07.053Z,101884.59
2017-10-04T06:42:09.498Z,101888.88
2017-10-04T06:44:12.008Z,101894.64
2017-10-04T06:46:14.483Z,101902.48
2017-10-04T06:48:16.970Z,101902.83
2017-10-04T06:50:19.417Z,101891.95
2017-10-04T06:52:21.880Z,101881.37
2017-10-04T06:54:24.330Z,101879.02
2017-10-04T06:56:26.778Z,101878.83
2017-10-04T06:58:29.256Z,101870.64
2017-10-04T07:00:31.729Z,101869.72
2017-10-04T07:02:34.386Z,101876.83
2017-10-04T07:04:36.858Z,101876.75
2017-10-04T07:06:39.372Z,101875.21
2017-10-04T07:08:41.817Z,101874.28
2017-10-04T07:10:44.276Z,101878.18
2017-10-04T07:12:46.773Z,101881.20
2017-10-04T07:14:49.248Z,101886.53
2017-10-04T07:16:51.826Z,101889.08
2017-10-04T07:18:54.293Z,101884.48
2017-10-04T07:20:56.735Z,101891.13
2017-10-04T07:22:59.223Z,101896.03
2017-10-04T07:25:01.669Z,101886.06
2017-10-04T07:27:04.132Z,101888.66
2017-10-04T07:29:06.600Z,101890.44
2017-10-04T07:31:09.036Z,101885.38
2017-10-04T07:33:11.500Z,101883.02
2017-10-04T07:35:14.049Z,101886.03
2017-10-04T07:37:16.500Z,101881.05
2017-10-04T07:39:18.936Z,101885.45
2017-10-04T07:41:21.507Z,101880.90
2017-10-04T07:43:23.948Z,101877.77
2017-10-04T07:45:26.412Z,101875.49
2017-10-04T07:47:28.988Z,101869.08
2017-10-04T07:49:31.425Z,101878.94
2017-10-04T07:51:33.893Z,101890.09
2017-10-04T07:53:36.370Z,101890.45
2017-10-04T07:55:38.801Z,101896.27
2017-10-04T07:57:41.241Z,101894.42
2017-10-04T07:59:43.704Z,101890.80
2017-10-04T08:01:46.156Z,101889.02
2017-10-04T08:03:48.629Z,101886.63
2017-10-04T08:05:51.096Z,101883.42
2017-10-04T08:07:53.534Z,101873.80
2017-10-04T08:09:56.004Z,101862.38
2017-10-04T08:11:58.474Z,101858.66
2017-10-04T08:14:00.921Z,101867.55
2017-10-04T08:16:03.474Z,101880.14
2017-10-04T08:18:06.229Z,101885.36
2017-10-04T08:20:08.705Z,101882.15
2017-10-04T08:22:11.161Z,101875.31
2017-10-04T08:24:13.635Z,101873.34
2017-10-04T08:26:16.101Z,101866.08
2017-10-04T08:28:18.579Z,101868.86
2017-10-04T08:30:21.063Z,101874.27
2017-10-04T08:32:23.514Z,101896.52
2017-10-04T08:34:26.043Z,101904.28
2017-10-04T08:36:29.466Z,101911.97
2017-10-04T08:38:31.915Z,101907.06
2017-10-04T08:40:34.424Z,101905.13
2017-10-04T08:42:36.884Z,101898.95
2017-10-04T08:44:39.341Z,101899.06
2017-10-04T08:46:42.794Z,101882.92
2017-10-04T08:48:45.260Z,101885.78
2017-10-04T08:50:47.705Z,101893.81
2017-10-04T08:52:50.173Z,101877.59
2017-10-04T08:54:52.765Z,101865.42
2017-10-04T08:56:55.208Z,101877.01
2017-10-04T08:58:57.655Z,101884.59
2017-10-04T09:01:00.131Z,101877.25
2017-10-04T09:03:02.576Z,101869.13
2017-10-04T09:05:16.767Z,101854.19
2017-10-04T09:07:19.346Z,101854.92
2017-10-04T09:09:21.808Z,101865.73
2017-10-04T09:11:24.287Z,101866.08
2017-10-04T09:13:26.814Z,101860.52
2017-10-04T09:15:29.266Z,101857.39
2017-10-04T09:17:31.707Z,101860.41
2017-10-04T09:19:34.266Z,101874.27
2017-10-04T09:21:36.709Z,101875.97
2017-10-04T09:23:39.174Z,101873.19
2017-10-04T09:25:41.647Z,101862.80
2017-10-04T09:27:44.088Z,101857.28
2017-10-04T09:29:46.524Z,101856.70
2017-10-04T09:31:48.988Z,101849.01
2017-10-04T09:33:51.485Z,101866.51
2017-10-04T09:35:53.925Z,101860.06
2017-10-04T09:37:56.381Z,101849.75
2017-10-04T09:39:58.881Z,101855.08
2017-10-04T09:42:01.314Z,101855.92
2017-10-04T09:44:03.785Z,101853.14
2017-10-04T09:46:06.232Z,101861.99
2017-10-04T09:48:08.795Z,101870.87
2017-10-04T09:50:11.323Z,101869.88
2017-10-04T09:52:13.766Z,101864.77
2017-10-04T09:54:16.276Z,101864.61
2017-10-04T09:56:18.728Z,101855.15
2017-10-04T09:58:21.325Z,101856.08
2017-10-04T10:00:23.752Z,101861.41
2017-10-04T10:02:26.242Z,101864.96
2017-10-04T10:04:28.689Z,101862.14
2017-10-04T10:06:31.123Z,101857.59
2017-10-04T10:08:33.596Z,101860.21
2017-10-04T10:10:36.375Z,101857.59
2017-10-04T10:12:38.898Z,101851.67
2017-10-04T10:14:41.422Z,101857.59
2017-10-04T10:16:43.945Z,101867.16
2017-10-04T10:18:46.388Z,101856.84
2017-10-04T10:20:48.969Z,101847.27
2017-10-04T10:22:51.419Z,101850.09
2017-10-04T10:24:53.863Z,101850.59
2017-10-04T10:26:56.311Z,101856.84
2017-10-04T10:28:58.760Z,101851.33
2017-10-04T10:31:01.304Z,101848.55
2017-10-04T10:33:03.762Z,101852.02
2017-10-04T10:35:06.294Z,101845.59
2017-10-04T10:37:08.735Z,101857.34
2017-10-04T10:39:11.188Z,101848.38
2017-10-04T10:41:13.688Z,101857.93
2017-10-04T10:43:16.124Z,101877.21
2017-10-04T10:45:18.586Z,101857.93
2017-10-04T10:47:21.101Z,101834.52
2017-10-04T10:49:23.536Z,101826.40
2017-10-04T10:51:26.033Z,101817.44
2017-10-04T10:53:28.518Z,101812.95
2017-10-04T10:55:30.994Z,101797.23
2017-10-04T10:57:33.551Z,101807.66
2017-10-04T10:59:36.080Z,101804.11
2017-10-04T11:01:38.517Z,101808.66
2017-10-04T11:03:40.980Z,101822.19
2017-10-04T11:05:43.446Z,101818.13
2017-10-04T11:07:45.889Z,101810.95
2017-10-04T11:09:48.432Z,101817.20
2017-10-04T11:11:50.876Z,101810.45
2017-10-04T11:13:53.326Z,101791.09
2017-10-04T11:15:55.840Z,101799.70
2017-10-04T11:17:58.287Z,101806.47
2017-10-04T11:20:00.792Z,101800.20
2017-10-04T11:22:03.468Z,101783.98
2017-10-04T11:24:05.904Z,101803.42
2017-10-04T11:26:08.343Z,101806.13
2017-10-04T11:28:10.881Z,101798.63
2017-10-04T11:30:13.342Z,101816.20
2017-10-04T11:32:15.782Z,101799.13
2017-10-04T11:34:18.265Z,101790.09
2017-10-04T11:36:20.826Z,101787.80
2017-10-04T11:38:23.381Z,101779.84
2017-10-04T11:40:26.000Z,101781.12
2017-10-04T11:42:28.512Z,101785.69
2017-10-04T11:44:30.949Z,101783.41
2017-10-04T11:46:33.420Z,101770.81
2017-10-04T11:48:35.916Z,101754.08
2017-10-04T11:50:38.347Z,101769.88
2017-10-04T11:52:40.807Z,101774.02
2017-10-04T11:54:43.261Z,101785.18
2017-10-04T11:56:45.701Z,101790.67
2017-10-04T11:58:48.274Z,101786.53
2017-10-04T12:00:50.721Z,101769.45
2017-10-04T12:02:53.179Z,101774.44
2017-10-04T12:04:55.950Z,101784.33
2017-10-04T12:06:58.415Z,101784.33
2017-10-04T12:09:00.872Z,101773.17
2017-10-04T12:11:03.344Z,101774.09
2017-10-04T12:13:05.816Z,101769.53
2017-10-04T12:15:08.274Z,101778.08
2017-10-04T12:17:10.820Z,101778.50
2017-10-04T12:19:13.427Z,101771.31
2017-10-04T12:21:15.946Z,101764.12
2017-10-04T12:23:18.617Z,101768.19
2017-10-04T12:25:21.057Z,101766.83
2017-10-04T12:27:23.528Z,101754.77
2017-10-04T12:29:25.995Z,101760.07
2017-10-04T12:31:28.433Z,101758.83
2017-10-04T12:33:31.860Z,101769.65
2017-10-04T12:35:34.374Z,101760.69
2017-10-04T12:37:36.840Z,101766.60
2017-10-04T12:39:39.286Z,101759.49
2017-10-04T12:41:41.846Z,101775.30
2017-10-04T12:43:44.288Z,101777.08
2017-10-04T12:45:46.728Z,101764.06
2017-10-04T12:47:49.240Z,101763.98
2017-10-04T12:49:51.712Z,101755.02
2017-10-04T12:51:54.238Z,101749.18
2017-10-04T12:53:56.705Z,101752.73
2017-10-04T12:55:59.149Z,101755.52
2017-10-04T12:58:01.581Z,101759.58
2017-10-04T13:00:04.072Z,101763.62
2017-10-04T13:02:06.517Z,101756.88
2017-10-04T13:04:08.940Z,101759.16
2017-10-04T13:06:11.396Z,101739.72
2017-10-04T13:08:13.887Z,101742.00
2017-10-04T13:10:16.360Z,101739.30
2017-10-04T13:12:18.817Z,101754.59
2017-10-04T13:14:21.252Z,101761.97
2017-10-04T13:16:23.777Z,101748.45
2017-10-04T13:18:26.245Z,101737.71
2017-10-04T13:20:28.701Z,101728.33
2017-10-04T13:22:31.150Z,101723.84
2017-10-04T13:24:33.761Z,101721.64
2017-10-04T13:26:36.286Z,101711.37
2017-10-04T13:28:38.810Z,101711.53
2017-10-04T13:30:41.535Z,101716.94
2017-10-04T13:32:44.049Z,101724.63
2017-10-04T13:34:46.483Z,101726.83
2017-10-04T13:36:48.992Z,101724.63
2017-10-04T13:38:51.453Z,101730.95
2017-10-04T13:40:53.991Z,101722.92
2017-10-04T13:42:56.494Z,101719.80
2017-10-04T13:44:58.929Z,101725.63
2017-10-04T13:47:01.435Z,101731.58
2017-10-04T13:49:03.898Z,101718.98
2017-10-04T13:51:06.342Z,101716.28
2017-10-04T13:53:08.775Z,101711.69
2017-10-04T13:55:11.278Z,101710.76
2017-10-04T13:57:13.714Z,101706.28
2017-10-04T13:59:16.160Z,101720.22
2017-10-04T14:01:18.628Z,101710.33
2017-10-04T14:03:21.068Z,101719.72
2017-10-04T14:05:23.595Z,101725.20
2017-10-04T14:07:26.062Z,101722.00
2017-10-04T14:09:28.612Z,101723.86
2017-10-04T14:11:31.039Z,101725.74
2017-10-04T14:13:33.511Z,101727.52
2017-10-04T14:15:36.099Z,101723.04
2017-10-04T14:17:38.536Z,101724.05
2017-10-04T14:19:41.037Z,101718.64
2017-10-04T14:21:43.537Z,101705.63
2017-10-04T14:23:46.008Z,101702.92
2017-10-04T14:25:48.641Z,101700.72
2017-10-04T14:27:51.107Z,101710.19
2017-10-04T14:29:53.624Z,101709.34
2017-10-04T14:31:56.105Z,101704.47
2017-10-04T14:33:58.572Z,101699.14
2017-10-04T14:36:01.045Z,101705.47
2017-10-04T14:38:03.523Z,101707.84
2017-10-04T14:40:05.960Z,101701.69
2017-10-04T14:42:08.485Z,101702.93
2017-10-04T14:44:11.080Z,101710.53
2017-10-04T14:46:13.565Z,101706.48
2017-10-04T14:48:16.052Z,101699.80
2017-10-04T14:50:18.538Z,101700.65
2017-10-04T14:52:20.981Z,101694.31
2017-10-04T14:54:23.423Z,101692.88
2017-10-04T14:56:25.884Z,101686.55
2017-10-04T14:58:28.410Z,101685.54
2017-10-04T15:00:30.871Z,101678.78
2017-10-04T15:02:33.339Z,101681.29
2017-10-04T15:04:35.784Z,101676.73
2017-10-04T15:06:38.212Z,101680.36
2017-10-04T15:08:40.672Z,101690.17
2017-10-04T15:10:43.134Z,101683.41
2017-10-04T15:12:45.570Z,101679.77
2017-10-04T15:14:48.048Z,101691.41
2017-10-04T15:16:50.497Z,101690.91
2017-10-04T15:18:52.939Z,101687.69
2017-10-04T15:20:55.400Z,101695.22
2017-10-04T15:22:57.949Z,101673.59
2017-10-04T15:25:00.380Z,101668.18
2017-10-04T15:27:03.245Z,101678.92
2017-10-04T15:29:05.787Z,101667.98
2017-10-04T15:31:08.220Z,101661.23
2017-10-04T15:33:10.695Z,101663.00
2017-10-04T15:35:13.154Z,101665.13
2017-10-04T15:37:15.606Z,101669.17
2017-10-04T15:39:18.078Z,101666.28
2017-10-04T15:41:20.586Z,101655.16
2017-10-04T15:43:23.079Z,101663.58
2017-10-04T15:45:25.554Z,101660.05
2017-10-04T15:47:28.028Z,101658.70
2017-10-04T15:49:30.467Z,101663.69
2017-10-04T15:51:32.935Z,101660.14
2017-10-04T15:53:35.471Z,101657.86
2017-10-04T15:55:37.929Z,101660.45
2017-10-04T15:57:40.459Z,101646.53
2017-10-04T15:59:42.928Z,101636.11
2017-10-04T16:01:46.320Z,101641.52
2017-10-04T16:03:48.882Z,101664.11
2017-10-04T16:05:51.355Z,101646.53
2017-10-04T16:07:53.803Z,101643.83
2017-10-04T16:09:57.262Z,101632.59
2017-10-04T16:11:59.945Z,101644.84
2017-10-04T16:14:02.587Z,101651.59
2017-10-04T16:16:05.068Z,101644.50
2017-10-04T16:18:07.553Z,101647.70
2017-10-04T16:20:09.997Z,101646.47
2017-10-04T16:22:12.524Z,101640.64
2017-10-04T16:24:14.968Z,101635.65
2017-10-04T16:26:18.503Z,101637.94
2017-10-04T16:28:21.172Z,101634.88
2017-10-04T16:30:23.660Z,101629.48
2017-10-04T16:32:26.093Z,101637.59
2017-10-04T16:34:28.609Z,101645.78
2017-10-04T16:36:31.061Z,101639.45
2017-10-04T16:38:33.513Z,101654.31
2017-10-04T16:40:36.017Z,101661.16
2017-10-04T16:42:38.549Z,101667.92
2017-10-04T16:44:41.037Z,101671.47
2017-10-04T16:46:43.538Z,101645.36
2017-10-04T16:48:45.993Z,101650.69
2017-10-04T16:50:48.436Z,101655.25
2017-10-04T16:52:50.905Z,101649.84
2017-10-04T16:54:53.341Z,101647.64
2017-10-04T16:56:55.834Z,101639.02
2017-10-04T16:58:58.313Z,101635.73
2017-10-04T17:01:00.766Z,101624.83
2017-10-04T17:03:03.200Z,101613.06
2017-10-04T17:05:06.804Z,101608.08
2017-10-04T17:07:09.314Z,101611.62
2017-10-04T17:09:11.764Z,101606.41
2017-10-04T17:11:14.324Z,101602.16
2017-10-04T17:13:16.789Z,101602.16
2017-10-04T17:15:19.263Z,101597.26
2017-10-04T17:17:21.728Z,101613.48
2017-10-04T17:19:24.181Z,101618.47
2017-10-04T17:21:26.654Z,101597.45
2017-10-04T17:23:29.125Z,101604.72
2017-10-04T17:25:31.567Z,101611.05
2017-10-04T17:27:34.062Z,101607.50
2017-10-04T17:29:36.554Z,101605.42
2017-10-04T17:31:39.075Z,101615.47
2017-10-04T17:33:41.526Z,101606.09
2017-10-04T17:35:43.979Z,101600.77
2017-10-04T17:37:46.424Z,101600.38
2017-10-04T17:39:48.888Z,101594.20
2017-10-04T17:41:51.463Z,101601.03
2017-10-04T17:43:53.916Z,101595.20
2017-10-04T17:45:56.352Z,101588.95
2017-10-04T17:47:58.817Z,101576.48
2017-10-04T17:50:01.262Z,101579.77
2017-10-04T17:52:03.708Z,101581.55
2017-10-04T17:54:06.168Z,101579.85
2017-10-04T17:56:08.595Z,101572.36
2017-10-04T17:58:11.031Z,101575.06
2017-10-04T18:00:13.584Z,101568.47
2017-10-04T18:02:16.064Z,101563.56
2017-10-04T18:04:18.505Z,101562.72
2017-10-04T18:06:20.981Z,101565.95
2017-10-04T18:08:23.431Z,101573.73
2017-10-04T18:10:25.933Z,101575.08
2017-10-04T18:12:28.515Z,101580.48
2017-10-04T18:14:30.953Z,101578.71
2017-10-04T18:16:33.644Z,101571.11
2017-10-04T18:18:36.106Z,101568.83
2017-10-04T18:20:38.569Z,101575.66
2017-10-04T18:22:41.025Z,101583.77
2017-10-04T18:24:43.485Z,101582.42
2017-10-04T18:26:45.930Z,101583.04
2017-10-04T18:28:48.408Z,101586.17
2017-10-04T18:30:50.911Z,101591.15
2017-10-04T18:32:53.348Z,101589.37
2017-10-04T18:34:55.878Z,101588.02
2017-10-04T18:36:58.365Z,101587.17
2017-10-04T18:39:00.800Z,101587.26
2017-10-04T18:41:03.246Z,101583.63
2017-10-04T18:43:05.736Z,101589.62
2017-10-04T18:45:08.562Z,101589.23
2017-10-04T18:47:11.374Z,101596.99
2017-10-04T18:49:13.948Z,101589.39
2017-10-04T18:51:17.865Z,101594.38
2017-10-04T18:53:21.686Z,101592.59
2017-10-04T18:55:24.161Z,101594.45
2017-10-04T18:57:26.637Z,101596.31
2017-10-04T18:59:29.076Z,101596.31
2017-10-04T19:01:32.724Z,101584.69
2017-10-04T19:03:35.267Z,101581.64
2017-10-04T19:05:38.133Z,101582.11
2017-10-04T19:07:40.605Z,101577.63
2017-10-04T19:09:43.062Z,101575.86
2017-10-04T19:11:45.563Z,101579.06
2017-10-04T19:13:48.029Z,101580.41
2017-10-04T19:15:50.503Z,101577.72
2017-10-04T19:17:52.938Z,101588.09
2017-10-04T19:19:55.426Z,101587.70
2017-10-04T19:21:57.878Z,101591.23
2017-10-04T19:24:00.315Z,101589.45
2017-10-04T19:26:02.785Z,101572.84
2017-10-04T19:28:05.261Z,101568.37
2017-10-04T19:30:07.750Z,101571.58
2017-10-04T19:32:10.356Z,101571.58
2017-10-04T19:34:12.877Z,101577.98
2017-10-04T19:36:15.331Z,101578.91
2017-10-04T19:38:17.790Z,101576.72
2017-10-04T19:40:20.253Z,101572.78
2017-10-04T19:42:22.704Z,101576.30
2017-10-04T19:44:25.429Z,101570.16
2017-10-04T19:46:27.873Z,101569.23
2017-10-04T19:48:30.325Z,101564.33
2017-10-04T19:50:32.810Z,101556.30
2017-10-04T19:52:35.259Z,101555.80
2017-10-04T19:54:37.701Z,101538.31
2017-10-04T19:56:40.164Z,101534.26
2017-10-04T19:58:42.604Z,101540.59
2017-10-04T20:00:45.167Z,101534.77
2017-10-04T20:02:47.624Z,101549.73
2017-10-04T20:04:50.092Z,101556.58
2017-10-04T20:06:52.549Z,101553.88
2017-10-04T20:08:55.008Z,101552.09
2017-10-04T20:10:57.464Z,101544.50
2017-10-04T20:12:59.912Z,101550.75
2017-10-04T20:15:02.463Z,101551.25
2017-10-04T20:17:04.916Z,101538.59
2017-10-04T20:19:07.413Z,101513.50
2017-10-04T20:21:09.879Z,101508.09
2017-10-04T20:23:12.363Z,101520.34
2017-10-04T20:25:14.796Z,101539.67
2017-10-04T20:27:17.260Z,101544.66
2017-10-04T20:29:19.712Z,101550.91
2017-10-04T20:31:22.212Z,101568.59
2017-10-04T20:33:24.769Z,101558.17
2017-10-04T20:35:27.222Z,101592.91
2017-10-04T20:37:29.660Z,101570.87
2017-10-04T20:39:32.224Z,101566.39
2017-10-04T20:41:34.726Z,101560.98
2017-10-04T20:43:37.205Z,101565.63
2017-10-04T20:45:39.678Z,101571.03
2017-10-04T20:47:42.115Z,101555.23
2017-10-04T20:49:44.569Z,101538.61
2017-10-04T20:51:47.029Z,101522.89
2017-10-04T20:53:49.485Z,101518.00
2017-10-04T20:55:51.934Z,101520.19
2017-10-04T20:57:54.385Z,101514.87
2017-10-04T20:59:56.836Z,101518.53
2017-10-04T21:01:59.297Z,101521.23
2017-10-04T21:04:01.771Z,101510.50
2017-10-04T21:06:04.210Z,101513.21
2017-10-04T21:08:06.666Z,101515.91
2017-10-04T21:10:09.136Z,101515.06
2017-10-04T21:12:11.584Z,101516.84
2017-10-04T21:14:14.074Z,101507.88
2017-10-04T21:16:16.568Z,101511.09
2017-10-04T21:18:19.017Z,101508.31
2017-10-04T21:20:21.497Z,101493.02
2017-10-04T21:22:24.056Z,101496.66
2017-10-04T21:24:26.492Z,101493.95
2017-10-04T21:26:28.928Z,101501.21
2017-10-04T21:28:31.401Z,101497.50
2017-10-04T21:30:33.950Z,101498.43
2017-10-04T21:32:36.401Z,101487.20
2017-10-04T21:34:38.987Z,101483.65
2017-10-04T21:36:41.429Z,101489.48
2017-10-04T21:38:43.921Z,101488.55
2017-10-04T21:40:46.392Z,101480.02
2017-10-04T21:42:48.833Z,101476.05
2017-10-04T21:44:51.272Z,101467.21
2017-10-04T21:46:53.748Z,101461.30
2017-10-04T21:48:56.238Z,101448.72
2017-10-04T21:50:58.680Z,101453.63
2017-10-04T21:53:01.147Z,101464.09
2017-10-04T21:55:03.594Z,101466.78
2017-10-04T21:57:06.064Z,101460.96
2017-10-04T21:59:08.531Z,101462.31
2017-10-04T22:01:10.992Z,101459.69
2017-10-04T22:03:13.432Z,101470.92
2017-10-04T22:05:15.901Z,101465.02
2017-10-04T22:07:18.335Z,101464.59
2017-10-04T22:09:20.764Z,101455.64
2017-10-04T22:11:23.220Z,101452.59
2017-10-04T22:13:25.675Z,101451.58
2017-10-04T22:15:28.121Z,101452.59
2017-10-04T22:17:30.652Z,101443.56
2017-10-04T22:19:33.090Z,101455.30
2017-10-04T22:21:35.526Z,101452.59
2017-10-04T22:23:37.981Z,101445.84
2017-10-04T22:25:40.419Z,101440.97
2017-10-04T22:27:42.864Z,101437.84
2017-10-04T22:29:45.318Z,101438.27
2017-10-04T22:31:47.813Z,101454.48
2017-10-04T22:33:50.253Z,101443.14
2017-10-04T22:35:52.793Z,101441.39
2017-10-04T22:37:55.261Z,101436.92
2017-10-04T22:39:57.704Z,101422.98
2017-10-04T22:42:00.179Z,101422.65
2017-10-04T22:44:02.669Z,101418.52
2017-10-04T22:46:05.113Z,101418.52
2017-10-04T22:48:07.672Z,101409.48
2017-10-04T22:50:10.108Z,101401.46
2017-10-04T22:52:12.579Z,101397.48
2017-10-04T22:54:15.041Z,101393.94
2017-10-04T22:56:17.473Z,101406.52
2017-10-04T22:58:19.927Z,101384.91
2017-10-04T23:00:22.432Z,101382.72
2017-10-04T23:02:24.884Z,101382.72
2017-10-04T23:04:27.376Z,101363.91
2017-10-04T23:06:29.840Z,101367.55
2017-10-04T23:08:32.273Z,101356.31
2017-10-04T23:10:34.788Z,101360.79
2017-10-04T23:12:37.255Z,101363.58
2017-10-04T23:14:39.702Z,101351.84
2017-10-04T23:16:42.187Z,101345.09
2017-10-04T23:18:44.649Z,101338.42